Time;durP1;ratioP1;P1;durP2;ratioP2;P2;SDS_P1;SDS_P2;PMS_P1;PMS_P2;Temp;Humidity;BMP_temperature;BMP_pressure;BME280_temperature;BME280_humidity;BME280_pressure;Samples;Min_cycle;Max_cycle;Signal;HPM_P1;HPM_P2
2021/11/14 00:01:03;;;;;;;46.67;16.95;;;7.00;99.90;;;;;;4924353;28;20244;-75
2021/11/14 00:03:30;;;;;;;43.63;17.45;;;7.10;99.90;;;;;;4928457;29;20393;-75
2021/11/14 00:05:56;;;;;;;43.05;16.55;;;7.10;99.90;;;;;;4924571;28;20035;-74
2021/11/14 00:08:22;;;;;;;43.08;17.27;;;7.10;99.90;;;;;;4927619;29;20376;-75
2021/11/14 00:10:53;;;;;;;49.60;18.35;;;7.10;99.90;;;;;;4942440;28;20217;-75
2021/11/14 00:13:19;;;;;;;;;;;7.10;99.90;;;;;;4937044;28;20473;-75
2021/11/14 00:15:45;;;;;;;54.70;16.95;;;7.10;99.90;;;;;;4930396;28;19973;-75
2021/11/14 00:18:10;;;;;;;41.58;16.80;;;7.10;99.90;;;;;;4938379;28;20023;-74
2021/11/14 00:20:37;;;;;;;45.50;17.70;;;7.10;99.90;;;;;;4921793;28;20027;-75
2021/11/14 00:23:04;;;;;;;48.53;18.23;;;7.00;99.90;;;;;;4944241;28;20115;-75
2021/11/14 00:25:29;;;;;;;50.30;17.98;;;7.10;99.90;;;;;;4937133;28;20043;-75
2021/11/14 00:27:55;;;;;;;50.20;17.67;;;7.10;99.90;;;;;;4924063;28;20039;-75
2021/11/14 00:30:21;;;;;;;50.47;17.08;;;7.10;99.90;;;;;;4940960;28;20035;-75
2021/11/14 00:32:46;;;;;;;53.13;18.25;;;7.10;99.90;;;;;;4943417;28;20031;-75
2021/11/14 00:35:15;;;;;;;49.30;18.20;;;7.10;99.90;;;;;;4933338;28;20039;-75
2021/11/14 00:37:41;;;;;;;51.13;17.45;;;7.10;99.90;;;;;;4938025;28;20384;-75
2021/11/14 00:40:11;;;;;;;47.78;16.92;;;7.10;99.90;;;;;;4935123;29;20091;-75
2021/11/14 00:42:37;;;;;;;51.25;18.85;;;7.10;99.90;;;;;;4926926;28;20067;-75
2021/11/14 00:45:04;;;;;;;63.72;18.50;;;7.10;99.90;;;;;;4943771;28;20051;-75
2021/11/14 00:47:30;;;;;;;55.05;17.58;;;7.10;99.90;;;;;;4949882;28;20027;-75
2021/11/14 00:49:55;;;;;;;61.22;18.65;;;7.10;99.90;;;;;;4928580;28;20477;-74
2021/11/14 00:52:21;;;;;;;51.17;17.45;;;7.10;99.90;;;;;;4924701;28;20551;-74
2021/11/14 00:54:46;;;;;;;59.80;17.85;;;7.10;99.90;;;;;;4925976;28;20671;-75
2021/11/14 00:57:12;;;;;;;55.63;18.30;;;7.10;99.90;;;;;;4936052;28;20031;-75
2021/11/14 00:59:38;;;;;;;67.85;19.15;;;7.10;99.90;;;;;;4938524;28;20039;-75
2021/11/14 01:02:03;;;;;;;64.63;18.58;;;7.10;99.90;;;;;;4927082;29;20046;-75
2021/11/14 01:04:29;;;;;;;65.45;18.73;;;7.10;99.90;;;;;;4929602;28;20027;-75
2021/11/14 01:06:54;;;;;;;74.57;19.55;;;7.20;99.90;;;;;;4946764;28;20035;-75
2021/11/14 01:09:20;;;;;;;59.92;18.35;;;7.20;99.90;;;;;;4930293;29;20345;-75
2021/11/14 01:11:45;;;;;;;69.78;19.70;;;7.20;99.90;;;;;;4943017;28;20409;-74
2021/11/14 01:14:11;;;;;;;77.15;20.33;;;7.10;99.90;;;;;;4936538;28;20074;-75
2021/11/14 01:16:37;;;;;;;79.85;21.55;;;7.10;99.90;;;;;;4935405;28;20130;-74
2021/11/14 01:19:03;;;;;;;71.63;20.98;;;7.10;99.90;;;;;;4943218;28;20692;-75
2021/11/14 01:21:29;;;;;;;76.22;22.45;;;7.20;99.90;;;;;;4942306;28;20035;-75
2021/11/14 01:23:55;;;;;;;83.80;22.77;;;7.20;99.90;;;;;;4943343;28;20035;-75
2021/11/14 01:26:21;;;;;;;80.57;22.67;;;7.20;99.90;;;;;;4938189;28;20038;-75
2021/11/14 01:28:48;;;;;;;82.07;23.38;;;7.20;99.90;;;;;;4935718;28;20039;-75
2021/11/14 01:31:13;;;;;;;85.18;24.52;;;7.20;99.90;;;;;;4941071;28;20030;-75
2021/11/14 01:33:39;;;;;;;86.28;24.50;;;7.10;99.90;;;;;;4936470;28;20393;-75
2021/11/14 01:36:05;;;;;;;93.82;24.85;;;7.10;99.90;;;;;;4935155;28;20540;-74
2021/11/14 01:38:31;;;;;;;88.35;26.15;;;7.10;99.90;;;;;;4926454;29;20027;-75
2021/11/14 01:41:05;;;;;;;88.80;26.38;;;7.10;99.90;;;;;;4925608;28;20105;-74
2021/11/14 01:43:36;;;;;;;102.03;27.77;;;7.10;99.90;;;;;;4945703;28;20411;-75
2021/11/14 01:46:02;;;;;;;103.90;29.90;;;7.10;99.90;;;;;;4929847;28;20087;-75
2021/11/14 01:48:28;;;;;;;100.22;29.52;;;7.10;99.90;;;;;;4931408;29;20043;-75
2021/11/14 01:50:54;;;;;;;115.63;30.88;;;7.10;99.90;;;;;;4941899;28;20039;-75
2021/11/14 01:53:20;;;;;;;101.03;29.25;;;7.10;99.90;;;;;;4929102;29;20062;-75
2021/11/14 01:55:47;;;;;;;103.90;29.45;;;7.10;99.90;;;;;;4932556;28;20074;-75
2021/11/14 01:58:16;;;;;;;112.13;29.95;;;7.10;99.90;;;;;;4941208;28;20106;-75
2021/11/14 02:00:51;;;;;;;113.43;30.42;;;7.10;99.90;;;;;;4942537;28;20247;-75
2021/11/14 02:03:17;;;;;;;118.97;29.83;;;7.10;99.90;;;;;;4937381;28;20493;-75
2021/11/14 02:05:44;;;;;;;106.97;31.80;;;7.10;99.90;;;;;;4941104;28;20043;-75
2021/11/14 02:08:11;;;;;;;116.68;32.00;;;7.10;99.90;;;;;;4928695;29;20130;-75
2021/11/14 02:10:38;;;;;;;140.15;33.13;;;7.00;99.90;;;;;;4938550;28;20043;-75
2021/11/14 02:13:04;;;;;;;124.00;33.03;;;7.00;99.90;;;;;;4940397;28;20118;-75
2021/11/14 02:15:30;;;;;;;130.07;33.20;;;7.00;99.90;;;;;;4923816;29;20528;-75
2021/11/14 02:17:56;;;;;;;131.50;33.38;;;7.00;99.90;;;;;;4945050;28;20023;-76
2021/11/14 02:20:23;;;;;;;132.80;32.50;;;7.00;99.90;;;;;;4942462;28;20123;-75
2021/11/14 02:22:48;;;;;;;126.35;32.42;;;7.00;99.90;;;;;;4941072;28;20110;-75
2021/11/14 02:25:16;;;;;;;125.60;31.88;;;7.00;99.90;;;;;;4920982;29;20461;-75
2021/11/14 02:27:45;;;;;;;124.40;31.48;;;7.00;99.90;;;;;;4940526;28;20069;-75
2021/11/14 02:30:14;;;;;;;145.10;32.42;;;7.00;99.90;;;;;;4938992;28;20037;-75
2021/11/14 02:32:40;;;;;;;157.90;33.83;;;7.00;99.90;;;;;;4937691;28;20118;-75
2021/11/14 02:35:07;;;;;;;136.25;32.30;;;7.00;99.90;;;;;;4942744;28;20027;-75
2021/11/14 02:37:33;;;;;;;143.57;32.55;;;7.00;99.90;;;;;;4929171;29;20417;-75
2021/11/14 02:39:59;;;;;;;134.02;31.83;;;7.00;99.90;;;;;;4944529;28;20026;-75
2021/11/14 02:42:24;;;;;;;148.02;32.63;;;7.00;99.90;;;;;;4929580;28;20031;-75
2021/11/14 02:44:50;;;;;;;149.85;32.92;;;7.10;99.90;;;;;;4930632;29;20030;-75
2021/11/14 02:47:15;;;;;;;141.68;31.90;;;7.00;99.90;;;;;;4940478;28;20138;-75
2021/11/14 02:49:41;;;;;;;120.55;31.30;;;7.00;99.90;;;;;;4941930;28;20405;-75
2021/11/14 02:52:07;;;;;;;120.30;31.30;;;7.00;99.90;;;;;;4941972;28;20110;-75
2021/11/14 02:54:33;;;;;;;125.22;30.67;;;7.00;99.90;;;;;;4934266;28;20031;-75
2021/11/14 02:56:59;;;;;;;133.57;31.17;;;7.00;99.90;;;;;;4936145;28;20027;-75
2021/11/14 02:59:25;;;;;;;148.05;31.58;;;7.00;99.90;;;;;;4939135;28;20452;-75
2021/11/14 03:01:53;;;;;;;124.47;30.80;;;7.00;99.90;;;;;;4928019;28;20163;-75
2021/11/14 03:04:23;;;;;;;106.00;28.85;;;7.00;99.90;;;;;;4940302;28;20047;-75
2021/11/14 03:06:52;;;;;;;141.93;31.35;;;7.00;99.90;;;;;;4936005;28;20275;-75
2021/11/14 03:09:18;;;;;;;134.75;31.38;;;7.00;99.90;;;;;;4941202;28;20043;-75
2021/11/14 03:11:45;;;;;;;127.88;31.90;;;7.00;99.90;;;;;;4941443;28;20031;-75
2021/11/14 03:14:11;;;;;;;122.53;30.17;;;7.00;99.90;;;;;;4939115;28;20031;-75
2021/11/14 03:16:38;;;;;;;116.30;32.08;;;7.00;99.90;;;;;;4939289;28;20178;-75
2021/11/14 03:19:05;;;;;;;118.43;31.55;;;7.00;99.90;;;;;;4925618;28;20437;-75
2021/11/14 03:21:31;;;;;;;126.55;31.88;;;7.00;99.90;;;;;;4943149;28;20110;-75
2021/11/14 03:23:57;;;;;;;119.60;32.33;;;7.00;99.90;;;;;;4928440;28;20202;-75
2021/11/14 03:26:24;;;;;;;106.80;31.33;;;7.00;99.90;;;;;;4944375;28;20031;-75
2021/11/14 03:28:50;;;;;;;112.95;32.47;;;7.00;99.90;;;;;;4931463;28;20485;-75
2021/11/14 03:31:15;;;;;;;100.68;32.13;;;7.00;99.90;;;;;;4925684;29;20032;-75
2021/11/14 03:33:42;;;;;;;115.97;31.73;;;7.00;99.90;;;;;;4928647;28;20032;-75
2021/11/14 03:36:11;;;;;;;102.60;32.85;;;7.00;99.90;;;;;;4942462;28;20031;-75
2021/11/14 03:38:43;;;;;;;102.75;30.92;;;7.00;99.90;;;;;;4921873;28;20027;-76
2021/11/14 03:41:12;;;;;;;97.10;29.58;;;7.00;99.90;;;;;;4940985;28;20027;-75
2021/11/14 03:43:38;;;;;;;105.70;32.17;;;7.00;99.90;;;;;;4941976;28;20034;-73
2021/11/14 03:46:05;;;;;;;94.22;30.75;;;7.00;99.90;;;;;;4942476;28;20034;-75
2021/11/14 03:48:34;;;;;;;109.22;30.70;;;7.00;99.90;;;;;;4926645;29;20126;-75
2021/11/14 03:51:00;;;;;;;89.40;30.55;;;7.00;99.90;;;;;;4938273;28;20508;-75
2021/11/14 03:53:25;;;;;;;78.80;27.45;;;7.00;99.90;;;;;;4939070;28;20072;-74
2021/11/14 03:55:55;;;;;;;90.22;29.67;;;7.00;99.90;;;;;;4929595;29;20083;-75
2021/11/14 03:58:21;;;;;;;93.40;29.13;;;7.00;99.90;;;;;;4938763;28;20034;-75
2021/11/14 04:00:50;;;;;;;84.70;28.10;;;7.00;99.90;;;;;;4938219;28;20467;-75
2021/11/14 04:03:16;;;;;;;80.85;28.30;;;7.00;99.90;;;;;;4945469;28;20079;-75
2021/11/14 04:05:45;;;;;;;78.75;27.02;;;7.00;99.90;;;;;;4942465;28;20088;-75
2021/11/14 04:08:14;;;;;;;77.55;28.73;;;7.00;99.90;;;;;;4939860;28;20445;-74
2021/11/14 04:10:42;;;;;;;90.45;28.38;;;7.00;99.90;;;;;;4942827;28;20032;-75
2021/11/14 04:13:08;;;;;;;79.53;27.52;;;7.00;99.90;;;;;;4927482;28;20034;-75
2021/11/14 04:15:34;;;;;;;85.78;28.13;;;7.00;99.90;;;;;;4931582;29;20489;-75
2021/11/14 04:18:00;;;;;;;85.85;27.13;;;7.00;99.90;;;;;;4932363;28;20118;-75
2021/11/14 04:20:29;;;;;;;79.60;28.08;;;7.00;99.90;;;;;;4924730;29;20446;-75
2021/11/14 04:22:55;;;;;;;86.00;29.02;;;7.00;99.90;;;;;;4925734;28;20080;-75
2021/11/14 04:25:22;;;;;;;94.82;30.95;;;7.00;99.90;;;;;;4926390;29;20106;-75
2021/11/14 04:27:48;;;;;;;102.70;33.25;;;7.10;99.90;;;;;;4933212;28;20439;-75
2021/11/14 04:30:14;;;;;;;96.00;30.77;;;7.00;99.90;;;;;;4921136;28;20230;-75
2021/11/14 04:32:40;;;;;;;98.55;30.10;;;7.10;99.90;;;;;;4937233;28;20039;-75
2021/11/14 04:35:07;;;;;;;99.20;31.33;;;7.10;99.90;;;;;;4936022;28;20057;-74
2021/11/14 04:37:33;;;;;;;114.07;33.95;;;7.00;99.90;;;;;;4927625;29;20527;-74
2021/11/14 04:39:58;;;;;;;108.70;33.78;;;7.10;99.90;;;;;;4944779;28;20222;-74
2021/11/14 04:42:24;;;;;;;91.50;30.90;;;7.10;99.90;;;;;;4924602;29;20043;-74
2021/11/14 04:44:49;;;;;;;95.13;29.55;;;7.00;99.90;;;;;;4937059;28;20122;-74
2021/11/14 04:47:16;;;;;;;86.10;29.25;;;7.00;99.90;;;;;;4930681;28;20428;-74
2021/11/14 04:49:41;;;;;;;100.85;30.20;;;7.00;99.90;;;;;;4935803;28;20036;-74
2021/11/14 04:52:08;;;;;;;96.78;29.23;;;7.00;99.90;;;;;;4943007;28;20031;-74
2021/11/14 04:54:34;;;;;;;89.35;29.30;;;7.10;99.90;;;;;;4939079;28;20513;-74
2021/11/14 04:56:59;;;;;;;102.63;30.27;;;7.10;99.90;;;;;;4924126;28;20042;-74
2021/11/14 04:59:25;;;;;;;99.18;30.35;;;7.10;99.90;;;;;;4928503;28;20357;-74
2021/11/14 05:01:50;;;;;;;109.57;29.60;;;7.00;99.90;;;;;;4926945;28;20033;-75
2021/11/14 05:04:16;;;;;;;116.70;32.25;;;7.10;99.90;;;;;;4937202;28;20043;-74
2021/11/14 05:06:41;;;;;;;100.70;29.83;;;7.10;99.90;;;;;;4930876;28;20055;-74
2021/11/14 05:09:07;;;;;;;112.65;29.48;;;7.10;99.90;;;;;;4941300;28;20036;-75
2021/11/14 05:11:33;;;;;;;101.55;29.45;;;7.10;99.90;;;;;;4938210;28;20031;-73
2021/11/14 05:13:58;;;;;;;114.55;30.42;;;7.10;99.90;;;;;;4924378;28;20042;-74
2021/11/14 05:16:24;;;;;;;105.38;29.17;;;7.00;99.90;;;;;;4934169;28;20376;-74
2021/11/14 05:18:49;;;;;;;92.30;29.15;;;7.00;99.90;;;;;;4942654;28;20449;-73
2021/11/14 05:21:15;;;;;;;90.97;29.73;;;7.10;99.90;;;;;;4944633;28;20083;-74
2021/11/14 05:23:41;;;;;;;111.70;31.20;;;7.10;99.90;;;;;;4924748;28;20038;-74
2021/11/14 05:26:06;;;;;;;98.75;29.67;;;7.10;99.90;;;;;;4936003;28;20468;-74
2021/11/14 05:28:33;;;;;;;105.28;30.42;;;7.00;99.90;;;;;;4950680;28;20050;-74
2021/11/14 05:30:58;;;;;;;98.80;30.10;;;7.00;99.90;;;;;;4924149;28;20046;-74
2021/11/14 05:33:24;;;;;;;101.22;30.75;;;7.00;99.90;;;;;;4934047;28;20051;-74
2021/11/14 05:35:50;;;;;;;99.50;31.23;;;7.00;99.90;;;;;;4926453;28;20276;-75
2021/11/14 05:38:15;;;;;;;110.68;32.50;;;7.10;99.90;;;;;;4944852;28;20198;-74
2021/11/14 05:40:42;;;;;;;109.35;31.20;;;7.00;99.90;;;;;;4926119;28;20035;-74
2021/11/14 05:43:07;;;;;;;101.70;31.48;;;7.00;99.90;;;;;;4930646;28;20042;-74
2021/11/14 05:45:35;;;;;;;115.57;33.50;;;7.00;99.90;;;;;;4929736;29;20046;-74
2021/11/14 05:48:00;;;;;;;96.25;30.58;;;7.00;99.90;;;;;;4938633;28;20071;-74
2021/11/14 05:50:26;;;;;;;100.43;30.52;;;7.00;99.90;;;;;;4938725;28;20076;-74
2021/11/14 05:52:51;;;;;;;94.72;29.90;;;7.00;99.90;;;;;;4932800;28;20536;-73
2021/11/14 05:55:17;;;;;;;88.82;31.85;;;7.00;99.90;;;;;;4942078;28;20044;-74
2021/11/14 06:00:12;;;;;;;110.82;33.88;;;7.10;99.90;;;;;;4940743;28;20031;-74
2021/11/14 06:02:44;;;;;;;100.07;30.75;;;7.00;99.90;;;;;;4939486;28;20024;-73
2021/11/14 06:07:36;;;;;;;111.85;33.88;;;7.00;99.90;;;;;;4944811;28;20039;-73
2021/11/14 06:10:02;;;;;;;106.30;31.42;;;7.00;99.90;;;;;;4932950;28;20031;-74
2021/11/14 06:12:28;;;;;;;113.90;32.58;;;7.10;99.90;;;;;;4940952;28;20111;-74
2021/11/14 06:14:54;;;;;;;116.15;33.97;;;7.00;99.90;;;;;;4915863;28;20459;-74
2021/11/14 06:17:20;;;;;;;119.70;33.35;;;7.00;99.90;;;;;;4943495;28;20031;-74
2021/11/14 06:19:47;;;;;;;103.00;31.05;;;7.00;99.90;;;;;;4942173;28;20046;-74
2021/11/14 06:22:14;;;;;;;104.95;32.88;;;7.00;99.90;;;;;;4927543;29;20518;-74
2021/11/14 06:24:39;;;;;;;109.80;33.45;;;7.00;99.90;;;;;;4939261;28;20131;-74
2021/11/14 06:27:05;;;;;;;117.53;33.40;;;7.00;99.90;;;;;;4928255;29;20126;-74
2021/11/14 06:29:31;;;;;;;131.38;33.63;;;7.00;99.90;;;;;;4925358;29;20027;-74
2021/11/14 06:31:56;;;;;;;123.35;32.63;;;7.10;99.90;;;;;;4941298;28;20539;-74
2021/11/14 06:34:22;;;;;;;120.60;32.58;;;7.00;99.90;;;;;;4926758;28;20094;-74
2021/11/14 06:36:47;;;;;;;106.85;32.65;;;7.00;99.90;;;;;;4935003;28;20037;-74
2021/11/14 06:39:13;;;;;;;124.90;31.50;;;7.00;99.90;;;;;;4923006;29;20378;-74
2021/11/14 06:41:38;;;;;;;113.82;32.65;;;7.00;99.90;;;;;;4926781;29;20220;-74
2021/11/14 06:44:04;;;;;;;117.40;31.67;;;7.00;99.90;;;;;;4946804;28;20105;-74
2021/11/14 06:46:29;;;;;;;121.40;31.45;;;7.10;99.90;;;;;;4936910;28;20368;-73
2021/11/14 06:48:55;;;;;;;112.03;31.33;;;7.00;99.90;;;;;;4941533;28;20523;-73
2021/11/14 06:51:20;;;;;;;120.47;30.90;;;7.10;99.90;;;;;;4930952;28;20038;-74
2021/11/14 06:53:46;;;;;;;114.45;31.40;;;7.10;99.90;;;;;;4940952;28;20039;-74
2021/11/14 06:56:11;;;;;;;123.20;32.88;;;7.10;99.90;;;;;;4919362;29;20063;-74
2021/11/14 06:58:37;;;;;;;116.28;30.52;;;7.10;99.90;;;;;;4939369;28;20035;-73
2021/11/14 07:01:02;;;;;;;107.32;30.20;;;7.10;99.90;;;;;;4940796;28;20167;-73
2021/11/14 07:03:28;;;;;;;109.07;29.08;;;7.00;99.90;;;;;;4936404;28;20031;-74
2021/11/14 07:05:54;;;;;;;104.50;29.75;;;7.10;99.90;;;;;;4934309;28;20182;-74
2021/11/14 07:08:19;;;;;;;112.68;30.80;;;7.10;99.90;;;;;;4937388;28;20131;-74
2021/11/14 07:10:45;;;;;;;108.38;29.33;;;7.10;99.90;;;;;;4926020;28;20042;-74
2021/11/14 07:13:11;;;;;;;94.78;29.60;;;7.10;99.90;;;;;;4932344;28;20032;-73
2021/11/14 07:15:36;;;;;;;108.93;30.10;;;7.10;99.90;;;;;;4940600;28;20103;-72
2021/11/14 07:18:02;;;;;;;105.07;29.48;;;7.10;99.90;;;;;;4926254;29;20082;-74
2021/11/14 07:20:28;;;;;;;104.07;30.33;;;7.10;99.90;;;;;;4939692;28;20551;-74
2021/11/14 07:22:53;;;;;;;118.45;30.52;;;7.20;99.90;;;;;;4943511;28;20146;-74
2021/11/14 07:25:19;;;;;;;102.57;30.25;;;7.20;99.90;;;;;;4985969;23;20129;-66
2021/11/14 07:27:48;;;;;;;89.78;29.30;;;7.20;99.90;;;;;;4978188;28;20502;-66
2021/11/14 07:30:15;;;;;;;117.78;29.73;;;7.20;99.90;;;;;;4967930;28;20730;-66
2021/11/14 07:32:41;;;;;;;95.78;28.77;;;7.20;99.90;;;;;;4980327;28;20431;-66
2021/11/14 07:35:09;;;;;;;100.03;28.92;;;7.20;99.90;;;;;;4966280;28;20023;-66
2021/11/14 07:37:35;;;;;;;107.35;28.77;;;7.30;99.90;;;;;;4966814;28;20259;-67
2021/11/14 07:40:00;;;;;;;101.97;27.92;;;7.30;99.90;;;;;;4978967;28;20587;-66
2021/11/14 07:42:26;;;;;;;93.00;27.27;;;7.20;99.90;;;;;;4964763;28;22715;-66
2021/11/14 07:44:52;;;;;;;96.68;27.45;;;7.30;99.90;;;;;;4973334;28;20027;-69
2021/11/14 07:47:17;;;;;;;86.85;26.30;;;7.30;99.90;;;;;;4972948;28;20042;-68
2021/11/14 07:49:43;;;;;;;98.82;28.45;;;7.30;99.90;;;;;;4967415;28;20403;-67
2021/11/14 07:52:08;;;;;;;97.07;27.73;;;7.30;99.90;;;;;;4965518;28;20077;-68
2021/11/14 07:54:34;;;;;;;80.07;25.10;;;7.30;99.90;;;;;;4969932;28;20038;-66
2021/11/14 07:57:00;;;;;;;79.28;25.20;;;7.30;99.90;;;;;;4968812;28;20149;-67
2021/11/14 07:59:26;;;;;;;97.78;28.65;;;7.30;99.90;;;;;;4966182;28;20496;-71
2021/11/14 08:01:52;;;;;;;78.00;27.13;;;7.30;99.90;;;;;;4969319;28;20085;-67
2021/11/14 08:04:18;;;;;;;94.85;26.85;;;7.30;99.90;;;;;;4974927;28;20353;-69
2021/11/14 08:06:44;;;;;;;81.05;25.63;;;7.40;99.90;;;;;;4985851;28;20053;-70
2021/11/14 08:09:09;;;;;;;81.38;24.58;;;7.40;99.90;;;;;;4984221;28;20034;-72
2021/11/14 08:11:35;;;;;;;82.35;25.17;;;7.40;99.90;;;;;;4982688;28;20033;-68
2021/11/14 08:14:00;;;;;;;79.72;25.48;;;7.40;99.90;;;;;;4986599;28;20356;-69
2021/11/14 08:16:26;;;;;;;77.40;24.35;;;7.50;99.90;;;;;;4985512;28;20070;-73
2021/11/14 08:18:51;;;;;;;69.97;24.45;;;7.50;99.90;;;;;;4993146;28;20026;-71
2021/11/14 08:21:17;;;;;;;71.47;24.77;;;7.50;99.90;;;;;;4994388;28;20540;-75
2021/11/14 08:23:43;;;;;;;70.03;26.17;;;7.40;99.90;;;;;;4984410;28;20100;-71
2021/11/14 08:26:08;;;;;;;60.63;23.88;;;7.50;99.90;;;;;;4988684;28;20046;-73
2021/11/14 08:28:34;;;;;;;70.10;25.60;;;7.50;99.90;;;;;;4984727;28;20050;-71
2021/11/14 08:30:59;;;;;;;64.68;23.40;;;7.40;99.90;;;;;;4993557;28;20115;-71
2021/11/14 08:33:25;;;;;;;67.43;23.80;;;7.50;99.90;;;;;;4990407;28;20177;-73
2021/11/14 08:35:51;;;;;;;57.47;22.92;;;7.50;99.90;;;;;;4974798;28;20029;-73
2021/11/14 08:38:17;;;;;;;61.05;24.27;;;7.50;99.90;;;;;;4985304;28;20425;-73
2021/11/14 08:40:42;;;;;;;53.95;22.33;;;7.50;99.90;;;;;;4989569;28;20193;-75
2021/11/14 08:43:09;;;;;;;55.58;23.83;;;7.50;99.90;;;;;;4988162;28;20486;-69
2021/11/14 08:45:35;;;;;;;51.97;23.52;;;7.50;99.90;;;;;;4998678;28;20022;-68
2021/11/14 08:48:01;;;;;;;63.03;23.63;;;7.50;99.90;;;;;;4983094;28;20512;-67
2021/11/14 08:50:28;;;;;;;58.75;23.77;;;7.60;99.90;;;;;;4993218;28;20406;-66
2021/11/14 08:52:55;;;;;;;58.10;23.15;;;7.60;99.90;;;;;;4966495;28;20076;-66
2021/11/14 08:55:23;;;;;;;59.80;22.45;;;7.60;99.90;;;;;;4973029;28;20690;-67
2021/11/14 08:57:51;;;;;;;51.83;21.67;;;7.50;99.90;;;;;;4994962;28;20029;-66
2021/11/14 09:00:21;;;;;;;51.25;22.35;;;7.60;99.90;;;;;;4997588;28;20371;-67
2021/11/14 09:02:50;;;;;;;50.50;20.35;;;7.60;99.90;;;;;;4988818;28;20660;-67
2021/11/14 09:05:17;;;;;;;44.75;20.92;;;7.60;99.90;;;;;;4995997;28;20045;-67
2021/11/14 09:07:44;;;;;;;45.30;21.38;;;7.60;99.90;;;;;;4994891;28;20022;-67
2021/11/14 09:10:10;;;;;;;52.15;21.90;;;7.70;99.90;;;;;;5001853;28;20026;-67
2021/11/14 09:12:36;;;;;;;48.22;20.08;;;7.60;99.80;;;;;;4974423;28;20029;-67
2021/11/14 09:15:03;;;;;;;42.67;19.60;;;7.60;99.80;;;;;;4987779;28;20042;-67
2021/11/14 09:17:29;;;;;;;46.83;20.35;;;7.70;99.90;;;;;;4990889;28;20160;-67
2021/11/14 09:19:54;;;;;;;41.15;20.23;;;7.80;99.90;;;;;;4983915;28;20224;-67
2021/11/14 09:22:20;;;;;;;47.03;20.25;;;7.80;99.80;;;;;;4967455;28;20030;-64
2021/11/14 09:24:46;;;;;;;40.13;20.08;;;7.70;99.60;;;;;;4988808;28;20031;-64
2021/11/14 09:27:12;;;;;;;41.70;20.63;;;7.80;99.70;;;;;;4989835;28;20418;-64
2021/11/14 09:29:38;;;;;;;42.20;20.52;;;7.80;99.60;;;;;;4988421;28;20118;-64
2021/11/14 09:32:04;;;;;;;37.45;21.58;;;7.90;99.50;;;;;;4990966;28;20061;-64
2021/11/14 09:34:29;;;;;;;40.92;20.65;;;7.90;99.50;;;;;;4988224;28;20367;-64
2021/11/14 09:36:55;;;;;;;38.45;19.05;;;7.90;99.30;;;;;;4988304;28;20233;-64
2021/11/14 09:39:21;;;;;;;44.00;20.05;;;8.00;99.30;;;;;;5001492;28;20039;-64
2021/11/14 09:41:48;;;;;;;35.88;20.27;;;8.00;99.20;;;;;;4992741;28;20101;-64
2021/11/14 09:44:16;;;;;;;41.50;20.92;;;8.10;99.20;;;;;;5003778;28;20026;-64
2021/11/14 09:46:49;;;;;;;45.72;20.83;;;8.10;99.00;;;;;;4996038;28;20029;-64
2021/11/14 09:49:15;;;;;;;46.00;21.92;;;8.10;99.00;;;;;;4984884;28;20037;-64
2021/11/14 09:51:43;;;;;;;46.90;20.85;;;8.10;98.90;;;;;;4995263;28;20125;-64
2021/11/14 09:54:10;;;;;;;42.05;22.25;;;8.10;98.80;;;;;;4989111;28;20101;-64
2021/11/14 09:56:37;;;;;;;46.97;22.90;;;8.10;98.70;;;;;;4990270;28;20069;-64
2021/11/14 09:59:02;;;;;;;45.85;21.73;;;8.10;98.70;;;;;;4988988;28;20038;-64
2021/11/14 10:01:28;;;;;;;44.35;22.80;;;8.10;98.60;;;;;;4994582;28;20364;-64
2021/11/14 10:03:53;;;;;;;42.90;21.25;;;8.10;98.60;;;;;;4984657;28;20306;-65
2021/11/14 10:06:22;;;;;;;46.45;22.20;;;8.10;98.50;;;;;;4992019;28;20118;-64
2021/11/14 10:08:49;;;;;;;42.58;22.58;;;8.10;98.50;;;;;;4999860;28;20121;-64
2021/11/14 10:11:14;;;;;;;44.15;21.88;;;8.00;98.50;;;;;;4989330;28;20109;-64
2021/11/14 10:13:46;;;;;;;43.63;22.42;;;8.00;98.40;;;;;;4991169;28;20509;-64
2021/11/14 10:16:15;;;;;;;43.45;20.92;;;8.00;98.50;;;;;;5001537;28;20053;-64
2021/11/14 10:19:08;;;;;;;50.75;23.08;;;8.00;98.60;;;;;;4997483;28;20131;-64
2021/11/14 10:21:35;;;;;;;47.85;21.38;;;8.00;98.50;;;;;;4989856;28;20022;-64
2021/11/14 10:24:05;;;;;;;48.05;22.60;;;7.90;98.50;;;;;;4989298;28;20034;-64
2021/11/14 10:26:31;;;;;;;48.83;22.85;;;8.00;98.70;;;;;;4988244;28;20473;-64
2021/11/14 10:29:03;;;;;;;45.63;22.10;;;7.90;98.50;;;;;;4996850;28;20084;-64
2021/11/14 10:31:29;;;;;;;52.13;23.20;;;8.00;98.70;;;;;;4995967;28;20493;-64
2021/11/14 10:33:55;;;;;;;46.35;22.45;;;8.00;98.60;;;;;;4996771;28;20049;-64
2021/11/14 10:36:22;;;;;;;43.72;21.50;;;7.90;98.50;;;;;;4997898;28;20026;-64
2021/11/14 10:38:49;;;;;;;52.05;23.27;;;8.00;98.60;;;;;;4996682;28;20548;-64
2021/11/14 10:41:15;;;;;;;46.40;23.33;;;8.00;98.60;;;;;;4998759;28;20037;-64
2021/11/14 10:43:43;;;;;;;43.30;22.42;;;8.00;98.60;;;;;;4985511;28;20035;-64
2021/11/14 10:46:20;;;;;;;42.97;22.40;;;8.00;98.50;;;;;;4992325;28;20398;-64
2021/11/14 10:48:47;;;;;;;42.25;22.45;;;8.10;98.60;;;;;;4986608;28;20566;-64
2021/11/14 10:51:13;;;;;;;41.28;22.10;;;8.10;98.60;;;;;;4986751;28;20038;-64
2021/11/14 10:53:41;;;;;;;38.45;20.98;;;8.00;98.60;;;;;;5005270;28;20026;-64
2021/11/14 10:56:10;;;;;;;35.47;18.48;;;8.00;98.50;;;;;;4996874;28;20256;-64
2021/11/14 10:58:36;;;;;;;34.92;18.85;;;8.00;98.60;;;;;;5003986;28;20026;-64
2021/11/14 11:01:08;;;;;;;39.88;19.40;;;8.00;98.50;;;;;;4990457;28;20037;-64
2021/11/14 11:03:40;;;;;;;44.05;19.67;;;8.10;98.50;;;;;;4995335;28;20053;-64
2021/11/14 11:06:08;;;;;;;34.50;19.38;;;8.10;98.50;;;;;;5006611;28;20065;-64
2021/11/14 11:08:35;;;;;;;36.45;19.55;;;8.10;98.50;;;;;;4989332;28;20379;-65
2021/11/14 11:11:03;;;;;;;41.63;20.35;;;8.10;98.50;;;;;;4987743;28;20022;-64
2021/11/14 11:13:39;;;;;;;42.63;19.63;;;8.10;98.60;;;;;;4987055;28;20030;-65
2021/11/14 11:16:10;;;;;;;35.58;19.63;;;8.20;98.40;;;;;;4997380;28;20102;-64
2021/11/14 11:18:38;;;;;;;36.55;19.30;;;8.20;98.40;;;;;;4985798;28;20035;-64
2021/11/14 11:21:06;;;;;;;39.05;19.58;;;8.10;98.30;;;;;;4996534;28;20057;-64
2021/11/14 11:23:35;;;;;;;38.03;19.73;;;8.10;98.50;;;;;;4994893;28;20537;-64
2021/11/14 11:26:04;;;;;;;39.30;19.42;;;8.10;98.30;;;;;;4987690;28;20034;-64
2021/11/14 11:28:34;;;;;;;48.47;20.38;;;8.10;98.50;;;;;;4989155;28;20314;-64
2021/11/14 11:31:02;;;;;;;45.72;21.52;;;8.20;98.50;;;;;;4991473;28;20461;-64
2021/11/14 11:33:31;;;;;;;42.60;20.27;;;8.20;98.50;;;;;;5001289;28;20033;-64
2021/11/14 11:35:58;;;;;;;42.85;19.95;;;8.20;98.60;;;;;;4985268;28;20026;-63
2021/11/14 11:38:25;;;;;;;47.67;21.48;;;8.20;98.60;;;;;;4990799;28;20083;-64
2021/11/14 11:40:56;;;;;;;45.88;20.38;;;8.20;98.60;;;;;;4995877;28;20034;-65
2021/11/14 11:43:21;;;;;;;42.72;19.88;;;8.30;98.60;;;;;;4994537;28;20751;-64
2021/11/14 11:45:48;;;;;;;41.05;20.77;;;8.30;98.70;;;;;;4984745;28;20046;-64
2021/11/14 11:48:33;;;;;;;45.33;19.98;;;8.20;98.30;;;;;;4989567;28;20025;-64
2021/11/14 11:51:13;;;;;;;38.67;18.85;;;8.30;98.50;;;;;;4993168;28;20054;-64
2021/11/14 11:53:39;;;;;;;40.38;19.85;;;8.30;98.40;;;;;;4993738;28;20026;-64
2021/11/14 11:56:07;;;;;;;41.13;20.65;;;8.20;98.40;;;;;;4995552;28;20029;-64
2021/11/14 11:58:52;;;;;;;48.92;22.80;;;8.30;98.50;;;;;;5005190;28;20022;-64
2021/11/14 12:01:25;;;;;;;43.70;21.20;;;8.20;98.40;;;;;;4985190;28;20109;-64
2021/11/14 12:03:53;;;;;;;44.17;20.30;;;8.10;98.50;;;;;;4987320;28;20634;-64
2021/11/14 12:06:21;;;;;;;44.50;20.35;;;8.10;98.50;;;;;;4986120;28;20030;-64
2021/11/14 12:08:51;;;;;;;39.95;19.88;;;8.10;98.40;;;;;;4989185;28;20026;-65
2021/11/14 12:11:33;;;;;;;47.17;20.27;;;8.10;98.50;;;;;;4989848;28;20045;-64
2021/11/14 12:14:30;;;;;;;46.92;20.90;;;8.10;98.50;;;;;;4995117;28;20626;-64
2021/11/14 12:17:01;;;;;;;50.13;22.45;;;8.00;98.50;;;;;;4993115;28;20277;-64
2021/11/14 12:19:32;;;;;;;53.97;22.50;;;8.00;98.50;;;;;;4988932;28;20035;-64
2021/11/14 12:22:03;;;;;;;60.75;24.17;;;8.00;98.60;;;;;;4988215;28;20060;-64
2021/11/14 12:24:31;;;;;;;71.47;24.42;;;8.00;98.60;;;;;;4989444;28;20393;-64
2021/11/14 12:26:57;;;;;;;63.10;24.85;;;7.90;98.60;;;;;;4994248;28;20058;-64
2021/11/14 12:29:31;;;;;;;56.03;23.05;;;8.00;98.70;;;;;;4995444;28;20026;-64
2021/11/14 12:32:15;;;;;;;60.85;24.05;;;7.90;98.60;;;;;;4996830;28;20133;-64
2021/11/14 12:34:42;;;;;;;59.22;22.90;;;7.90;98.80;;;;;;5001662;28;20505;-64
2021/11/14 12:37:14;;;;;;;55.50;23.88;;;7.80;98.70;;;;;;4996484;28;20022;-64